Latest Weather Observations for Cabramurra

IDN60901

Issued at 12:05 pm EST Wednesday 3 September 2014 (issued every 10 minutes, with the page automatically refreshed every 10 minutes)

About weather observations | Map of Canberra area stations | Latest observations for Canberra area | Other Formats
Station Details ID: 072161 Name: CABRAMURRA SMHEA AWS Lat: -35.94 Lon: 148.38 Height: 1482.4 m
Data from the previous 72 hours. | See also: Recent months at Cabramurra
Date/Time
EST
Tmp

°C
App
Tmp
°C
Dew
Point
°C
Rel
Hum
%
Delta-T

°C
Wind Press
QNH
hPa
Press
MSL
hPa
Rain
since
9 am
mm
Dir
 
Spd
km/h
Gust
km/h
Spd
kts
Gust
kts
03/12:00pm 4.4 -2.6 -3.4 57 3.0 S 24 41 13 22 - - 0.0
03/11:30am 4.0 -0.9 -3.5 58 2.9 SSE 13 28 7 15 - - 0.0
03/11:00am 3.0 -4.9 -4.7 57 2.8 SSE 28 48 15 26 - - 0.0
03/10:42am 2.4 -5.5 -4.8 59 2.7 SSE 28 48 15 26 - - 0.0
03/10:30am 2.9 -3.7 -3.6 62 2.4 S 22 41 12 22 - - 0.0
03/10:00am 2.2 -4.8 -3.5 66 2.1 SSE 24 43 13 23 - - 0.0
03/09:30am 1.7 -6.5 -4.0 66 2.2 SSE 30 52 16 28 - - 0.0
03/09:00am 1.1 -6.8 -4.5 66 2.1 SE 28 50 15 27 - - 0.0
03/08:30am 0.8 -4.6 -4.2 69 1.9 SE 15 22 8 12 - - 0.0
03/08:00am -0.3 -6.1 -4.5 73 1.5 SE 17 30 9 16 - - 0.0
03/07:30am -1.1 -8.3 -5.5 72 1.5 SSE 24 35 13 19 - - 0.0
03/07:00am -2.1 -7.3 -5.7 76 1.1 S 13 19 7 10 - - 0.0
03/06:30am -2.5 -8.4 -6.1 76 1.1 S 17 26 9 14 - - 0.0
03/06:00am -2.5 -9.1 -6.8 72 1.3 S 20 32 11 17 - - 0.0
03/05:30am -2.9 -8.9 -10.7 55 2.2 S 15 26 8 14 - - 0.0
03/05:00am -3.0 -9.0 -11.7 51 2.3 S 15 28 8 15 - - 0.0
03/04:30am -2.9 -9.2 -10.9 54 2.2 S 17 24 9 13 - - 0.0
03/04:00am -2.9 -9.1 -9.3 61 1.8 S 17 32 9 17 - - 0.0
03/03:30am -3.1 -8.5 -8.0 69 1.4 S 13 20 7 11 - - 0.0
03/03:00am -2.6 -10.1 -8.1 66 1.6 S 24 39 13 21 - - 0.0
03/02:30am -2.5 -10.6 -6.8 72 1.3 S 28 37 15 20 - - 0.0
03/02:00am -3.1 -8.8 -4.1 93 0.2 S 17 24 9 13 - - 0.0
03/01:30am -2.8 -8.6 -5.0 85 0.6 S 17 24 9 13 - - 0.0
03/01:00am -2.4 -7.9 -5.5 79 0.9 S 15 20 8 11 - - 0.0
03/12:30am -2.1 -9.4 -6.5 72 1.4 S 24 37 13 20 - - 0.0
03/12:00am -2.1 -9.0 -6.5 72 1.4 S 22 33 12 18 - - 0.0
 
Date/Time
EST
Tmp

°C
App
Tmp
°C
Dew
Point
°C
Rel
Hum
%
Delta-T

°C
Wind Press
QNH
hPa
Press
MSL
hPa
Rain
since
9 am
mm
Dir
 
Spd
km/h
Gust
km/h
Spd
kts
Gust
kts
02/11:30pm -1.8 -9.5 -6.5 70 1.5 S 26 35 14 19 - - 0.0
02/11:00pm -1.6 -9.1 -4.1 83 0.8 S 26 37 14 20 - - 0.0
02/10:30pm -1.2 -6.0 -2.8 89 0.5 S 13 17 7 9 - - 0.0
02/10:00pm -0.9 -5.7 -2.9 86 0.7 S 13 17 7 9 - - 0.0
02/09:30pm -0.7 -6.3 -3.1 84 0.8 S 17 26 9 14 - - 0.0
02/09:00pm -0.7 -6.9 -3.1 84 0.8 S 20 33 11 18 - - 0.0
02/08:30pm -0.6 -6.7 -3.6 80 1.1 S 19 26 10 14 - - 0.0
02/08:00pm -0.6 -7.6 -3.9 78 1.2 S 24 39 13 21 - - 0.0
02/07:30pm -0.4 -9.1 -4.8 72 1.5 S 32 50 17 27 - - 0.0
02/07:23pm -0.2 -8.8 -4.4 73 1.5 S 32 50 17 27 - - 0.0
02/07:15pm -0.2 -8.0 -3.4 79 1.2 S 28 44 15 24 - - 0.0
02/07:00pm -0.4 -5.3 -0.5 99 0.0 S 15 26 8 14 - - 0.0
02/06:30pm -0.4 -5.3 -0.5 99 0.0 SSW 15 20 8 11 - - 0.0
02/06:00pm -0.2 -4.7 -0.3 99 0.0 SSW 13 19 7 10 - - 0.0
02/05:30pm 0.0 -4.5 -0.4 97 0.2 SSW 13 20 7 11 - - 0.0
02/05:00pm 0.0 -4.1 -0.1 99 0.0 SSW 11 19 6 10 - - 0.0
02/04:30pm 0.0 -4.5 -0.1 99 0.0 SSW 13 20 7 11 - - 0.0
02/04:00pm -0.1 -5.0 -0.2 99 0.0 SW 15 19 8 10 - - 0.0
02/03:30pm 0.0 -5.6 -0.1 99 0.0 SW 19 24 10 13 - - 0.0
02/03:00pm 0.4 -5.4 -0.2 96 0.2 SSW 20 32 11 17 - - 0.0
02/02:30pm 1.4 -6.7 -0.5 87 0.8 SSW 32 52 17 28 - - 0.0
02/02:16pm 2.1 -5.3 -1.0 80 1.2 SSW 28 52 15 28 - - 0.0
02/02:00pm 1.8 -5.5 0.2 89 0.7 SSW 28 39 15 21 - - 0.0
02/01:30pm 1.1 -5.8 0.2 94 0.4 SW 26 39 14 21 - - 0.0
02/01:00pm 2.9 -3.6 0.3 83 1.1 SW 24 37 13 20 - - 0.0
02/12:36pm 3.0 -4.3 0.2 82 1.2 SW 28 46 15 25 - - 0.0
02/12:30pm 2.7 -4.2 -0.1 82 1.1 SW 26 41 14 22 - - 0.0
02/12:00pm 1.9 -4.5 1.2 95 0.3 SW 24 43 13 23 - - 0.0
02/11:30am 1.6 -4.9 0.3 91 0.5 SW 24 33 13 18 - - 0.0
02/11:00am 1.2 -4.8 1.1 99 0.0 SSW 22 35 12 19 - - 0.0
02/10:30am 1.0 -4.6 0.9 99 0.0 SSW 20 26 11 14 - - 0.0
02/10:00am -0.1 -5.7 -0.2 99 0.0 SW 19 26 10 14 - - 0.0
02/09:30am 0.6 -4.2 0.5 99 0.0 SW 15 20 8 11 - - 0.0
02/09:00am 0.7 -4.4 0.6 99 0.0 SSW 17 24 9 13 - - 6.4
02/08:30am 0.2 -5.4 0.1 99 0.0 SW 19 26 10 14 - - 6.4
02/08:00am 0.0 -5.2 -0.1 99 0.0 SW 17 26 9 14 - - 6.4
02/07:30am -0.1 -4.6 -0.2 99 0.0 SSW 13 19 7 10 - - 6.4
02/07:00am -0.1 -3.8 -0.2 99 0.0 S 9 11 5 6 - - 6.4
02/06:30am -0.1 -4.6 -0.2 99 0.0 S 13 17 7 9 - - 5.8
02/06:00am 0.1 -4.4 0.0 99 0.0 SW 13 19 7 10 - - 5.6
02/05:30am 0.1 -3.6 0.0 99 0.0 S 9 13 5 7 - - 5.6
02/05:00am 0.4 -3.2 0.3 99 0.0 SW 9 11 5 6 - - 5.6
02/04:30am 0.6 -3.8 0.5 99 0.0 SW 13 20 7 11 - - 5.4
02/04:00am 0.7 -3.3 0.6 99 0.0 WSW 11 20 6 11 - - 5.2
02/03:30am 0.8 -4.7 0.7 99 0.0 W 19 28 10 15 - - 5.2
02/03:00am 1.0 -4.6 0.9 99 0.0 W 20 28 11 15 - - 4.8
02/02:30am 1.0 -5.4 0.9 99 0.0 W 24 35 13 19 - - 4.6
02/02:00am 1.1 -6.8 1.0 99 0.0 WNW 32 48 17 26 - - 4.4
02/01:34am 1.9 -5.1 1.8 99 0.0 WNW 28 46 15 25 - - 3.4
02/01:30am 1.9 -5.5 1.8 99 0.0 WNW 30 46 16 25 - - 3.4
02/01:15am 1.9 -5.1 1.8 99 0.0 WNW 28 46 15 25 - - 3.2
02/01:00am 1.9 -6.8 1.8 99 0.0 WNW 37 52 20 28 - - 2.8
02/12:30am 2.4 -5.3 2.3 99 0.0 NW 32 54 17 29 - - 2.4
02/12:03am 2.4 -5.5 2.3 99 0.0 WNW 33 72 18 39 - - 2.4
02/12:02am 2.4 -5.3 2.3 99 0.0 WNW 32 52 17 28 - - 2.4
02/12:00am 2.4 -4.9 2.3 99 0.0 WNW 30 46 16 25 - - 2.4
 
Date/Time
EST
Tmp

°C
App
Tmp
°C
Dew
Point
°C
Rel
Hum
%
Delta-T

°C
Wind Press
QNH
hPa
Press
MSL
hPa
Rain
since
9 am
mm
Dir
 
Spd
km/h
Gust
km/h
Spd
kts
Gust
kts
01/11:44pm 2.4 -5.5 2.3 99 0.0 WNW 33 65 18 35 - - 2.0
01/11:30pm 2.4 -5.9 2.3 99 0.0 WNW 35 50 19 27 - - 1.8
01/11:00pm 2.5 -6.5 2.4 99 0.0 WNW 39 61 21 33 - - 1.6
01/10:31pm 2.7 -4.9 2.6 99 0.0 W 32 50 17 27 - - 1.0
01/10:30pm 2.7 -5.1 2.6 99 0.0 W 33 50 18 27 - - 1.0
01/10:00pm 2.9 -5.7 2.8 99 0.0 W 37 63 20 34 - - 0.4
01/09:30pm 3.3 -3.5 3.2 99 0.0 W 28 50 15 27 - - 0.0
01/09:01pm 3.9 -3.9 2.9 93 0.4 W 33 52 18 28 - - 0.0
01/09:00pm 4.0 -3.8 3.0 93 0.4 W 33 50 18 27 - - 0.0
01/08:34pm 5.2 -1.8 2.2 81 1.3 WNW 28 48 15 26 - - 0.0
01/08:30pm 5.6 -0.8 3.1 84 1.1 WNW 26 39 14 21 - - 0.0
01/08:07pm 5.9 -2.0 2.2 77 1.7 WNW 33 56 18 30 - - 0.0
01/08:00pm 6.0 -1.1 3.7 85 1.1 WNW 30 44 16 24 - - 0.0
01/07:30pm 6.7 0.0 3.7 81 1.4 NW 28 44 15 24 - - 0.0
01/07:00pm 7.0 -1.0 3.6 79 1.6 NW 35 50 19 27 - - 0.0
01/06:30pm 6.5 -0.9 5.0 90 0.7 NNW 33 44 18 24 - - 0.0
01/06:00pm 6.8 -1.6 3.8 81 1.4 NNW 37 48 20 26 - - 0.0
01/05:30pm 6.8 -0.9 3.6 80 1.5 NNW 33 44 18 24 - - 0.0
01/05:00pm 7.0 -0.1 3.4 78 1.7 NNW 30 39 16 21 - - 0.0
01/04:30pm 7.5 0.2 2.4 70 2.3 NW 30 54 16 29 - - 0.0
01/04:03pm 8.7 1.6 1.6 61 3.2 NNW 28 54 15 29 - - 0.0
01/04:00pm 8.7 1.8 2.3 64 2.9 NW 28 39 15 21 - - 0.0
01/03:30pm 8.6 1.6 2.0 63 3.0 NW 28 39 15 21 - - 0.0
01/03:08pm 9.2 2.0 0.9 56 3.7 NW 28 50 15 27 - - 0.0
01/03:00pm 9.8 3.5 1.5 56 3.8 WNW 24 39 13 21 - - 0.0
01/02:43pm 9.1 1.9 0.6 55 3.8 WNW 28 46 15 25 - - 0.0
01/02:30pm 9.8 2.9 2.4 60 3.4 NW 28 43 15 23 - - 0.0
01/02:00pm 9.3 1.3 0.7 55 3.8 NW 32 56 17 30 - - 0.0
01/01:30pm 9.4 2.4 1.8 59 3.5 NW 28 43 15 23 - - 0.0
01/01:03pm 10.0 2.2 -0.5 48 4.6 WNW 30 50 16 27 - - 0.0
01/01:00pm 10.2 3.0 0.8 52 4.2 WNW 28 43 15 23 - - 0.0
01/12:30pm 9.5 2.3 0.7 54 3.9 NW 28 50 15 27 - - 0.0
01/12:06pm 9.2 1.8 2.1 61 3.3 NW 30 48 16 26 - - 0.0
01/12:00pm 8.5 0.2 0.0 55 3.7 NW 33 48 18 26 - - 0.0
01/11:49am 9.3 2.1 0.5 54 3.9 NW 28 46 15 25 - - 0.0
01/11:30am 8.8 2.1 1.7 61 3.2 NW 26 39 14 21 - - 0.0
01/11:00am 8.6 3.8 2.8 67 2.7 NNW 17 26 9 14 - - 0.0
01/10:30am 8.1 3.5 3.6 73 2.1 NNW 17 24 9 13 - - 0.0
01/10:00am 6.9 2.1 2.8 75 1.9 NNW 17 24 9 13 - - 0.0
01/09:30am 7.3 2.0 2.8 73 2.1 NNW 20 28 11 15 - - 0.0
01/09:00am 5.1 -0.1 2.6 84 1.1 NNW 19 26 10 14 - - 0.0
01/08:30am 5.2 1.2 2.6 83 1.2 N 13 20 7 11 - - 0.0
01/08:00am 5.3 0.5 2.8 84 1.1 NNW 17 20 9 11 - - 0.0
01/07:30am 4.0 -0.4 2.5 90 0.7 NNW 15 20 8 11 - - 0.0
01/07:00am 3.9 -1.0 1.8 86 0.9 NNW 17 20 9 11 - - 0.0
01/06:30am 4.3 -0.7 1.3 81 1.3 NW 17 20 9 11 - - 0.0
01/06:00am 3.7 -1.2 -0.3 75 1.6 NW 15 20 8 11 - - 0.0
01/05:30am 3.7 -0.9 -0.9 72 1.9 NW 13 17 7 9 - - 0.0
01/05:00am 3.3 -1.2 -0.2 78 1.4 NW 13 17 7 9 - - 0.0
01/04:30am 3.2 -0.7 1.4 88 0.8 NNW 11 15 6 8 - - 0.0
01/04:00am 3.6 0.1 1.0 83 1.1 N 9 13 5 7 - - 0.0
01/03:30am 3.8 0.2 0.7 80 1.3 N 9 13 5 7 - - 0.0
01/03:00am 3.4 -0.1 1.4 87 0.9 NNE 9 11 5 6 - - 0.0
01/02:30am 3.8 0.8 2.2 89 0.7 N 7 9 4 5 - - 0.0
01/02:00am 3.0 1.4 2.4 96 0.3 CALM 0 0 0 0 - - 0.0
01/01:30am 3.1 1.5 2.5 96 0.3 CALM 0 0 0 0 - - 0.0
01/01:00am 3.0 0.0 1.8 92 0.5 WNW 7 11 4 6 - - 0.0
01/12:30am 3.6 1.9 2.1 90 0.7 CALM 0 0 0 0 - - 0.0
01/12:00am 3.4 1.7 2.1 91 0.6 CALM 0 0 0 0 - - 0.0
 
Date/Time
EST
Tmp

°C
App
Tmp
°C
Dew
Point
°C
Rel
Hum
%
Delta-T

°C
Wind Press
QNH
hPa
Press
MSL
hPa
Rain
since
9 am
mm
Dir
 
Spd
km/h
Gust
km/h
Spd
kts
Gust
kts
31/11:30pm 3.7 2.2 2.8 94 0.4 CALM 0 0 0 0 - - 0.0
31/11:00pm 3.6 2.0 2.3 91 0.6 CALM 0 0 0 0 - - 0.0
31/10:30pm 3.7 1.9 1.3 84 1.0 CALM 0 0 0 0 - - 0.0
31/10:00pm 3.3 0.6 0.2 80 1.3 WNW 4 7 2 4 - - 0.0
31/09:30pm 3.9 0.8 1.3 83 1.1 WSW 7 9 4 5 - - 0.0
31/09:00pm 4.0 0.4 0.7 79 1.4 SW 9 13 5 7 - - 0.0
31/08:30pm 4.3 0.5 -0.5 71 2.0 W 9 15 5 8 - - 0.0
31/08:00pm 4.5 0.3 -0.7 69 2.1 W 11 15 6 8 - - 0.0
31/07:30pm 4.5 2.4 -0.7 69 2.1 CALM 0 6 0 3 - - 0.0
31/07:00pm 4.9 2.9 -0.1 70 2.1 CALM 0 0 0 0 - - 0.0
31/06:30pm 4.8 1.0 -0.8 67 2.3 W 9 13 5 7 - - 0.0
31/06:00pm 5.2 1.8 -0.4 67 2.3 W 7 11 4 6 - - 0.0
31/05:30pm 6.8 3.1 -0.2 61 3.0 WNW 9 13 5 7 - - 0.0
31/05:00pm 7.3 3.0 -1.9 52 3.8 WNW 11 15 6 8 - - 0.0
31/04:30pm 8.2 3.1 -1.6 50 4.1 WNW 15 20 8 11 - - 0.0
31/04:00pm 8.7 3.2 -2.0 47 4.5 W 17 22 9 12 - - 0.0
31/03:30pm 9.1 3.5 -2.5 44 4.8 W 17 24 9 13 - - 0.0
31/03:00pm 9.6 4.1 -2.3 43 5.0 W 17 26 9 14 - - 0.0
31/02:30pm 9.5 3.9 -2.8 42 5.1 WNW 17 24 9 13 - - 0.0
31/02:00pm 9.1 3.6 -1.9 46 4.6 W 17 26 9 14 - - 0.0
31/01:30pm 9.5 3.9 -2.8 42 5.1 WNW 17 24 9 13 - - 0.0
31/01:00pm 9.5 3.8 -0.9 48 4.5 W 19 28 10 15 - - 0.0
31/12:30pm 9.1 3.8 -0.8 50 4.3 W 17 26 9 14 - - 0.0

Latest Capital City Observations: Canberra | Sydney | Melbourne | Brisbane | Adelaide | Perth | Hobart | Darwin

Other Formats:

Comma delimited format used in spreadsheet applications
http://www.bom.gov.au/fwo/IDN60903/IDN60903.95916.axf

JavaScript Object Notation format (JSON) in row-major order
http://www.bom.gov.au/fwo/IDN60903/IDN60903.95916.json